Carnival Valor — H3VR — position and weather

sailwx.info

Track history (hours):
 
Tides and Currents Weather Stations Pressure Air Temp Water Temp Dewpoint Dewpoint Depression Visibility Wind Speed Wind Dir Waves Ship Positions

Carnival Valor

Last reported at 2017-Jul-22 23:53 UTC. Time now 2017-Jul-24 02:31 UTC.
Position N 20°35' W 086°58'.

Type: Ship. MMSI: 354298000.

Date/timePositionNaut miles runAvg speedWind from/ knotsBaromVisibWave heightAir tempDewpointWater temp
2017-Jul-22 23:53N 20°35' W 086°58'514.5
2017-Jul-22 23:31N 20°30' W 087°00'2 4.5
2017-Jul-22 23:00N 20°29' W 086°59'0 0.0
2017-Jul-22 22:30N 20°29' W 086°59'0 0.0
2017-Jul-22 22:00N 20°29' W 086°59'0 0.0
2017-Jul-22 21:30N 20°29' W 086°59'0 0.0
2017-Jul-22 20:59N 20°29' W 086°59'0 0.0
2017-Jul-22 20:29N 20°29' W 086°59'0 0.0
2017-Jul-22 19:59N 20°29' W 086°59'0 0.0
2017-Jul-22 19:29N 20°29' W 086°59'0 0.0
2017-Jul-22 19:00N 20°29' W 086°59'0 0.0
2017-Jul-22 18:28N 20°29' W 086°59'0 0.0
2017-Jul-22 17:58N 20°29' W 086°59'0 0.0
2017-Jul-22 17:28N 20°29' W 086°59'0 0.0
2017-Jul-22 16:58N 20°29' W 086°59'0 0.0
2017-Jul-22 16:30N 20°29' W 086°59'0 0.0
2017-Jul-22 16:00N 20°29' W 086°59'0 0.0
2017-Jul-22 15:30N 20°29' W 086°59'0 0.0
2017-Jul-22 15:00N 20°29' W 086°59'0 0.0
2017-Jul-22 14:00N 20°29' W 086°59'0 0.7
2017-Jul-22 13:30N 20°29' W 086°59'4 8.6
2017-Jul-22 13:00N 20°33' W 086°60'510.1
2017-Jul-22 12:30N 20°37' W 086°57'67217.4
2017-Jul-20 21:52N 29°21' W 094°42'411.4
2017-Jul-20 21:31N 29°19' W 094°47'1 1.4
2017-Jul-20 20:40N 29°19' W 094°48'0 0.0
2017-Jul-20 20:27N 29°19' W 094°48'0 0.0
2017-Jul-20 19:51N 29°19' W 094°48'0 0.0
2017-Jul-20 18:27N 29°19' W 094°48'0 0.0
2017-Jul-20 16:02N 29°19' W 094°48'0 0.0
2017-Jul-20 15:56N 29°19' W 094°48'0 0.0
2017-Jul-20 15:25N 29°19' W 094°48'0 0.0
2017-Jul-20 14:55N 29°19' W 094°48'0 0.0
2017-Jul-20 13:55N 29°19' W 094°48'0 0.0
2017-Jul-20 13:18N 29°19' W 094°48'0 0.0
2017-Jul-20 13:00N 29°19' W 094°48'0 0.8
2017-Jul-20 12:30N 29°19' W 094°47'2 3.9
2017-Jul-20 12:00N 29°20' W 094°46'33614.0
2017-Jul-19 12:00N 24°24' W 091°48'352 9.8 080 / 61016.010.8 25.022.030.0
2017-Jul-17 23:54N 20°35' W 086°58'512.3
2017-Jul-17 23:31N 20°31' W 087°00'3 5.0
2017-Jul-17 23:01N 20°29' W 086°59'0 0.2
2017-Jul-17 22:30N 20°29' W 086°59'0 0.0
2017-Jul-17 21:59N 20°29' W 086°59'0 0.0
2017-Jul-17 21:29N 20°29' W 086°59'0 0.0
2017-Jul-17 20:59N 20°29' W 086°59'0 0.0
2017-Jul-17 20:29N 20°29' W 086°59'0 0.0
2017-Jul-17 19:59N 20°29' W 086°59'0 0.0
2017-Jul-17 19:28N 20°29' W 086°59'0 0.0
2017-Jul-17 18:58N 20°29' W 086°59'0 0.0
2017-Jul-17 18:25N 20°29' W 086°59'0 0.0
2017-Jul-17 17:58N 20°29' W 086°59'0 0.0
2017-Jul-17 17:30N 20°29' W 086°59'0 0.0
2017-Jul-17 17:00N 20°29' W 086°59'0 0.0
2017-Jul-17 16:30N 20°29' W 086°59'0 0.0
2017-Jul-17 16:00N 20°29' W 086°59'0 0.0
2017-Jul-17 15:30N 20°29' W 086°59'0 0.0
2017-Jul-17 14:56N 20°29' W 086°59'0 0.0
2017-Jul-17 14:30N 20°29' W 086°59'0 0.0
2017-Jul-17 14:00N 20°29' W 086°59'1 2.8
2017-Jul-17 13:30N 20°30' W 086°59'4 7.0
2017-Jul-17 13:01N 20°33' W 086°60'510.5
2017-Jul-17 12:30N 20°38' W 086°57'67117.4
2017-Jul-15 22:01N 29°20' W 094°41'015.5
2017-Jul-15 22:00N 29°20' W 094°42'510.1
2017-Jul-15 21:30N 29°19' W 094°47'1 1.7
2017-Jul-15 20:59N 29°19' W 094°48'0 0.0
2017-Jul-15 20:19N 29°19' W 094°48'0 0.0
2017-Jul-15 19:13N 29°19' W 094°48'0 0.0
2017-Jul-15 18:49N 29°19' W 094°48'0 0.0
2017-Jul-15 18:13N 29°19' W 094°48'0 0.0
2017-Jul-15 18:00N 29°19' W 094°48'0 0.0
2017-Jul-15 17:24N 29°19' W 094°48'0 0.0
2017-Jul-15 17:00N 29°19' W 094°48'0 0.0
2017-Jul-15 16:21N 29°19' W 094°48'0 0.0
2017-Jul-15 16:00N 29°19' W 094°48'0 0.0
2017-Jul-15 15:29N 29°19' W 094°48'0 0.0
2017-Jul-15 14:47N 29°19' W 094°48'0 0.0
2017-Jul-15 13:59N 29°19' W 094°48'0 0.0
2017-Jul-15 13:29N 29°19' W 094°48'0 0.0
2017-Jul-15 12:58N 29°19' W 094°48'0 0.0
2017-Jul-15 12:29N 29°19' W 094°48'1 2.6
2017-Jul-15 12:00N 29°19' W 094°47'3 6.7
2017-Jul-15 11:29N 29°21' W 094°43'32813.9
2017-Jul-14 12:00N 24°30' W 091°54'   050 / 101015.010.8 25.022.030.0
Track history (hours):
 
Tides and Currents Weather Stations Pressure Air Temp Water Temp Dewpoint Dewpoint Depression Visibility Wind Speed Wind Dir Waves Ship Positions

Carnival Valor

Last reported at 2017-Jul-22 23:53 UTC. Time now 2017-Jul-24 02:31 UTC.
Position N 20°35' W 086°58'.

Type: Ship. MMSI: 354298000.

Date/timePositionNaut miles runAvg speedWind from/ knotsBaromVisibWave heightAir tempDewpointWater temp
2017-Jul-22 23:53N 20°35' W 086°58'514.5
2017-Jul-22 23:31N 20°30' W 087°00'2 4.5
2017-Jul-22 23:00N 20°29' W 086°59'0 0.0
2017-Jul-22 22:30N 20°29' W 086°59'0 0.0
2017-Jul-22 22:00N 20°29' W 086°59'0 0.0
2017-Jul-22 21:30N 20°29' W 086°59'0 0.0
2017-Jul-22 20:59N 20°29' W 086°59'0 0.0
2017-Jul-22 20:29N 20°29' W 086°59'0 0.0
2017-Jul-22 19:59N 20°29' W 086°59'0 0.0
2017-Jul-22 19:29N 20°29' W 086°59'0 0.0
2017-Jul-22 19:00N 20°29' W 086°59'0 0.0
2017-Jul-22 18:28N 20°29' W 086°59'0 0.0
2017-Jul-22 17:58N 20°29' W 086°59'0 0.0
2017-Jul-22 17:28N 20°29' W 086°59'0 0.0
2017-Jul-22 16:58N 20°29' W 086°59'0 0.0
2017-Jul-22 16:30N 20°29' W 086°59'0 0.0
2017-Jul-22 16:00N 20°29' W 086°59'0 0.0
2017-Jul-22 15:30N 20°29' W 086°59'0 0.0
2017-Jul-22 15:00N 20°29' W 086°59'0 0.0
2017-Jul-22 14:00N 20°29' W 086°59'0 0.7
2017-Jul-22 13:30N 20°29' W 086°59'4 8.6
2017-Jul-22 13:00N 20°33' W 086°60'510.1
2017-Jul-22 12:30N 20°37' W 086°57'67217.4
2017-Jul-20 21:52N 29°21' W 094°42'411.4
2017-Jul-20 21:31N 29°19' W 094°47'1 1.4
2017-Jul-20 20:40N 29°19' W 094°48'0 0.0
2017-Jul-20 20:27N 29°19' W 094°48'0 0.0
2017-Jul-20 19:51N 29°19' W 094°48'0 0.0
2017-Jul-20 18:27N 29°19' W 094°48'0 0.0
2017-Jul-20 16:02N 29°19' W 094°48'0 0.0
2017-Jul-20 15:56N 29°19' W 094°48'0 0.0
2017-Jul-20 15:25N 29°19' W 094°48'0 0.0
2017-Jul-20 14:55N 29°19' W 094°48'0 0.0
2017-Jul-20 13:55N 29°19' W 094°48'0 0.0
2017-Jul-20 13:18N 29°19' W 094°48'0 0.0
2017-Jul-20 13:00N 29°19' W 094°48'0 0.8
2017-Jul-20 12:30N 29°19' W 094°47'2 3.9
2017-Jul-20 12:00N 29°20' W 094°46'33614.0
2017-Jul-19 12:00N 24°24' W 091°48'352 9.8 080 / 61016.010.8 25.022.030.0
2017-Jul-17 23:54N 20°35' W 086°58'512.3
2017-Jul-17 23:31N 20°31' W 087°00'3 5.0
2017-Jul-17 23:01N 20°29' W 086°59'0 0.2
2017-Jul-17 22:30N 20°29' W 086°59'0 0.0
2017-Jul-17 21:59N 20°29' W 086°59'0 0.0
2017-Jul-17 21:29N 20°29' W 086°59'0 0.0
2017-Jul-17 20:59N 20°29' W 086°59'0 0.0
2017-Jul-17 20:29N 20°29' W 086°59'0 0.0
2017-Jul-17 19:59N 20°29' W 086°59'0 0.0
2017-Jul-17 19:28N 20°29' W 086°59'0 0.0
2017-Jul-17 18:58N 20°29' W 086°59'0 0.0
2017-Jul-17 18:25N 20°29' W 086°59'0 0.0
2017-Jul-17 17:58N 20°29' W 086°59'0 0.0
2017-Jul-17 17:30N 20°29' W 086°59'0 0.0
2017-Jul-17 17:00N 20°29' W 086°59'0 0.0
2017-Jul-17 16:30N 20°29' W 086°59'0 0.0
2017-Jul-17 16:00N 20°29' W 086°59'0 0.0
2017-Jul-17 15:30N 20°29' W 086°59'0 0.0
2017-Jul-17 14:56N 20°29' W 086°59'0 0.0
2017-Jul-17 14:30N 20°29' W 086°59'0 0.0
2017-Jul-17 14:00N 20°29' W 086°59'1 2.8
2017-Jul-17 13:30N 20°30' W 086°59'4 7.0
2017-Jul-17 13:01N 20°33' W 086°60'510.5
2017-Jul-17 12:30N 20°38' W 086°57'67117.4
2017-Jul-15 22:01N 29°20' W 094°41'015.5
2017-Jul-15 22:00N 29°20' W 094°42'510.1
2017-Jul-15 21:30N 29°19' W 094°47'1 1.7
2017-Jul-15 20:59N 29°19' W 094°48'0 0.0
2017-Jul-15 20:19N 29°19' W 094°48'0 0.0
2017-Jul-15 19:13N 29°19' W 094°48'0 0.0
2017-Jul-15 18:49N 29°19' W 094°48'0 0.0
2017-Jul-15 18:13N 29°19' W 094°48'0 0.0
2017-Jul-15 18:00N 29°19' W 094°48'0 0.0
2017-Jul-15 17:24N 29°19' W 094°48'0 0.0
2017-Jul-15 17:00N 29°19' W 094°48'0 0.0
2017-Jul-15 16:21N 29°19' W 094°48'0 0.0
2017-Jul-15 16:00N 29°19' W 094°48'0 0.0
2017-Jul-15 15:29N 29°19' W 094°48'0 0.0
2017-Jul-15 14:47N 29°19' W 094°48'0 0.0
2017-Jul-15 13:59N 29°19' W 094°48'0 0.0
2017-Jul-15 13:29N 29°19' W 094°48'0 0.0
2017-Jul-15 12:58N 29°19' W 094°48'0 0.0
2017-Jul-15 12:29N 29°19' W 094°48'1 2.6
2017-Jul-15 12:00N 29°19' W 094°47'3 6.7
2017-Jul-15 11:29N 29°21' W 094°43'32813.9
2017-Jul-14 12:00N 24°30' W 091°54'   050 / 101015.010.8 25.022.030.0

Dump ship's entire track history